createdAt,value
2019-02-06T00:00:55.983Z,1022.44
2019-02-06T00:01:55.972Z,1022.44
2019-02-06T00:02:55.971Z,1022.39
2019-02-06T00:03:55.884Z,1022.45
2019-02-06T00:04:55.889Z,1022.41
2019-02-06T00:05:55.869Z,1022.46
2019-02-06T00:06:55.929Z,1022.41
2019-02-06T00:07:55.835Z,1022.40
2019-02-06T00:08:55.813Z,1022.40
2019-02-06T00:09:55.797Z,1022.44
2019-02-06T00:11:02.783Z,1022.38
2019-02-06T00:11:55.792Z,1022.34
2019-02-06T00:13:04.847Z,1022.35
2019-02-06T00:13:55.800Z,1022.34
2019-02-06T00:14:56.779Z,1022.30
2019-02-06T00:15:55.759Z,1022.34
2019-02-06T00:16:55.792Z,1022.32
2019-02-06T00:17:55.723Z,1022.24
2019-02-06T00:18:55.801Z,1022.24
2019-02-06T00:19:55.697Z,1022.23
2019-02-06T00:20:55.783Z,1022.21
2019-02-06T00:21:55.793Z,1022.19
2019-02-06T00:22:55.698Z,1022.16
2019-02-06T00:23:55.647Z,1022.19
2019-02-06T00:24:55.708Z,1022.14
2019-02-06T00:25:55.627Z,1022.10
2019-02-06T00:26:55.644Z,1022.11
2019-02-06T00:27:55.608Z,1022.12
2019-02-06T00:28:55.664Z,1022.13
2019-02-06T00:29:55.591Z,1022.13
2019-02-06T00:30:55.656Z,1022.14
2019-02-06T00:31:55.576Z,1022.18
2019-02-06T00:32:55.664Z,1022.13
2019-02-06T00:33:55.539Z,1022.05
2019-02-06T00:34:55.576Z,1022.03
2019-02-06T00:35:55.534Z,1022.10
2019-02-06T00:36:55.617Z,1022.04
2019-02-06T00:37:55.503Z,1022.05
2019-02-06T00:38:55.506Z,1022.10
2019-02-06T00:39:55.476Z,1022.06
2019-02-06T00:40:55.526Z,1022.06
2019-02-06T00:41:55.472Z,1022.03
2019-02-06T00:42:55.545Z,1022.11
2019-02-06T00:43:55.463Z,1022.06
2019-02-06T00:44:55.436Z,1022.00
2019-02-06T00:45:55.408Z,1021.98
2019-02-06T00:46:55.485Z,1021.96
2019-02-06T00:47:55.387Z,1021.97
2019-02-06T00:48:55.468Z,1022.02
2019-02-06T00:49:55.366Z,1021.99
2019-02-06T00:50:55.378Z,1021.95
2019-02-06T00:51:55.380Z,1021.97
2019-02-06T00:52:55.394Z,1021.96
2019-02-06T00:53:55.326Z,1022.04
2019-02-06T00:54:55.407Z,1021.99
2019-02-06T00:55:55.311Z,1021.93
2019-02-06T00:56:55.344Z,1021.99
2019-02-06T00:57:55.298Z,1021.95
2019-02-06T00:58:55.327Z,1021.95
2019-02-06T00:59:58.304Z,1021.95
2019-02-06T01:00:56.264Z,1021.88
2019-02-06T01:01:55.245Z,1021.81
2019-02-06T01:02:55.253Z,1021.89
2019-02-06T01:03:55.220Z,1021.85
2019-02-06T01:04:55.269Z,1021.84
2019-02-06T01:05:55.190Z,1021.79
2019-02-06T01:06:55.308Z,1021.80
2019-02-06T01:07:55.171Z,1021.79
2019-02-06T01:08:55.191Z,1021.81
2019-02-06T01:09:55.152Z,1021.82
2019-02-06T01:10:55.227Z,1021.86
2019-02-06T01:11:55.151Z,1021.84
2019-02-06T01:12:55.221Z,1021.82
2019-02-06T01:13:55.119Z,1021.84
2019-02-06T01:14:55.143Z,1021.80
2019-02-06T01:15:55.109Z,1021.73
2019-02-06T01:16:55.148Z,1021.76
2019-02-06T01:17:55.101Z,1021.83
2019-02-06T01:18:55.176Z,1021.79
2019-02-06T01:19:55.060Z,1021.82
2019-02-06T01:20:55.071Z,1021.78
2019-02-06T01:21:55.017Z,1021.82
2019-02-06T01:22:55.115Z,1021.77
2019-02-06T01:23:55.012Z,1021.70
2019-02-06T01:24:55.104Z,1021.72
2019-02-06T01:25:54.974Z,1021.77
2019-02-06T01:26:55.010Z,1021.77
2019-02-06T01:27:54.979Z,1021.73
2019-02-06T01:28:55.032Z,1021.74
2019-02-06T01:29:54.944Z,1021.73
2019-02-06T01:30:54.950Z,1021.68
2019-02-06T01:31:54.908Z,1021.62
2019-02-06T01:32:54.983Z,1021.63
2019-02-06T01:33:54.915Z,1021.60
2019-02-06T01:34:54.975Z,1021.58
2019-02-06T01:35:54.883Z,1021.61
2019-02-06T01:36:54.887Z,1021.57
2019-02-06T01:37:54.865Z,1021.62
2019-02-06T01:38:54.937Z,1021.59
2019-02-06T01:39:54.828Z,1021.59
2019-02-06T01:40:54.904Z,1021.60
2019-02-06T01:41:54.814Z,1021.58
2019-02-06T01:42:56.152Z,1021.58
2019-02-06T01:43:54.800Z,1021.61
2019-02-06T01:44:54.785Z,1021.61
2019-02-06T01:45:54.759Z,1021.61
2019-02-06T01:47:09.760Z,1021.57
2019-02-06T01:47:54.769Z,1021.57
2019-02-06T01:48:54.765Z,1021.64
2019-02-06T01:49:54.718Z,1021.61
2019-02-06T01:50:54.714Z,1021.61
2019-02-06T01:51:54.706Z,1021.64
2019-02-06T01:52:54.717Z,1021.54
2019-02-06T01:53:54.679Z,1021.60
2019-02-06T01:54:54.679Z,1021.59
2019-02-06T01:55:54.657Z,1021.59
2019-02-06T01:56:54.659Z,1021.61
2019-02-06T01:57:54.669Z,1021.55
2019-02-06T01:58:54.638Z,1021.56
2019-02-06T01:59:54.631Z,1021.57
2019-02-06T02:00:54.606Z,1021.58
2019-02-06T02:01:54.590Z,1021.54
2019-02-06T02:02:54.628Z,1021.55
2019-02-06T02:03:54.578Z,1021.49
2019-02-06T02:04:54.562Z,1021.53
2019-02-06T02:06:01.946Z,1021.51
2019-02-06T02:06:55.533Z,1021.49
2019-02-06T02:07:54.539Z,1021.40
2019-02-06T02:08:54.517Z,1021.46
2019-02-06T02:09:54.522Z,1021.45
2019-02-06T02:10:54.500Z,1021.40
2019-02-06T02:11:54.507Z,1021.39
2019-02-06T02:12:54.496Z,1021.39
2019-02-06T02:13:54.472Z,1021.42
2019-02-06T02:14:54.473Z,1021.45
2019-02-06T02:15:54.460Z,1021.46
2019-02-06T02:16:54.427Z,1021.42
2019-02-06T02:17:54.454Z,1021.40
2019-02-06T02:18:54.404Z,1021.46
2019-02-06T02:19:54.400Z,1021.40
2019-02-06T02:20:54.404Z,1021.46
2019-02-06T02:21:54.404Z,1021.36
2019-02-06T02:22:54.363Z,1021.38
2019-02-06T02:23:54.368Z,1021.34
2019-02-06T02:24:54.342Z,1021.36
2019-02-06T02:25:54.340Z,1021.29
2019-02-06T02:26:54.468Z,1021.29
2019-02-06T02:27:54.342Z,1021.29
2019-02-06T02:28:54.316Z,1021.30
2019-02-06T02:29:54.295Z,1021.27
2019-02-06T02:30:54.279Z,1021.16
2019-02-06T02:31:54.281Z,1021.12
2019-02-06T02:32:54.259Z,1021.11
2019-02-06T02:33:54.265Z,1021.08
2019-02-06T02:34:54.236Z,1021.06
2019-02-06T02:35:54.239Z,1021.03
2019-02-06T02:36:54.215Z,1021.06
2019-02-06T02:37:54.213Z,1020.98
2019-02-06T02:38:54.233Z,1020.95
2019-02-06T02:39:54.257Z,1020.92
2019-02-06T02:40:54.172Z,1020.89
2019-02-06T02:41:54.219Z,1020.86
2019-02-06T02:42:54.157Z,1020.85
2019-02-06T02:43:54.162Z,1020.84
2019-02-06T02:44:54.128Z,1020.83
2019-02-06T02:45:54.140Z,1020.85
2019-02-06T02:46:54.109Z,1020.82
2019-02-06T02:47:54.122Z,1020.80
2019-02-06T02:48:54.110Z,1020.72
2019-02-06T02:49:54.087Z,1020.77
2019-02-06T02:50:54.068Z,1020.76
2019-02-06T02:51:54.072Z,1020.86
2019-02-06T02:52:54.045Z,1020.88
2019-02-06T02:53:54.053Z,1020.82
2019-02-06T02:54:54.023Z,1020.82
2019-02-06T02:55:54.039Z,1020.81
2019-02-06T02:56:54.016Z,1020.76
2019-02-06T02:57:54.012Z,1020.79
2019-02-06T02:58:53.998Z,1020.73
2019-02-06T02:59:53.988Z,1020.73
2019-02-06T03:00:53.959Z,1020.74
2019-02-06T03:01:53.960Z,1020.72
2019-02-06T03:02:53.945Z,1020.78
2019-02-06T03:03:53.971Z,1020.72
2019-02-06T03:04:53.919Z,1020.69
2019-02-06T03:05:53.914Z,1020.74
2019-02-06T03:06:53.894Z,1020.72
2019-02-06T03:07:53.891Z,1020.67
2019-02-06T03:08:53.900Z,1020.66
2019-02-06T03:09:53.889Z,1020.67
2019-02-06T03:10:55.136Z,1020.62
2019-02-06T03:11:53.850Z,1020.65
2019-02-06T03:12:53.838Z,1020.64
2019-02-06T03:13:53.837Z,1020.57
2019-02-06T03:14:54.029Z,1020.62
2019-02-06T03:15:53.811Z,1020.65
2019-02-06T03:16:53.818Z,1020.52
2019-02-06T03:17:53.787Z,1020.54
2019-02-06T03:18:53.789Z,1020.46
2019-02-06T03:19:53.785Z,1020.44
2019-02-06T03:20:53.753Z,1020.40
2019-02-06T03:21:53.751Z,1020.39
2019-02-06T03:22:53.740Z,1020.36
2019-02-06T03:23:53.735Z,1020.36
2019-02-06T03:24:53.707Z,1020.28
2019-02-06T03:25:53.703Z,1020.27
2019-02-06T03:26:53.693Z,1020.19
2019-02-06T03:27:53.692Z,1020.21
2019-02-06T03:28:53.710Z,1020.15
2019-02-06T03:29:53.667Z,1020.14
2019-02-06T03:30:53.664Z,1020.08
2019-02-06T03:31:53.646Z,1020.10
2019-02-06T03:32:53.630Z,1020.14
2019-02-06T03:33:53.662Z,1020.10
2019-02-06T03:34:53.602Z,1020.01
2019-02-06T03:35:53.602Z,1019.98
2019-02-06T03:36:53.578Z,1019.98
2019-02-06T03:37:53.582Z,1019.92
2019-02-06T03:38:53.565Z,1019.95
2019-02-06T03:39:53.567Z,1019.95
2019-02-06T03:40:53.562Z,1019.99
2019-02-06T03:41:53.536Z,1019.95
2019-02-06T03:42:53.517Z,1019.98
2019-02-06T03:43:53.514Z,1020.03
2019-02-06T03:44:53.508Z,1019.95
2019-02-06T03:45:53.500Z,1019.94
2019-02-06T03:46:53.480Z,1019.93
2019-02-06T03:47:53.474Z,1019.88
2019-02-06T03:48:53.454Z,1019.85
2019-02-06T03:49:53.474Z,1019.86
2019-02-06T03:50:53.436Z,1019.77
2019-02-06T03:51:53.426Z,1019.86
2019-02-06T03:52:53.419Z,1019.79
2019-02-06T03:53:53.410Z,1019.76
2019-02-06T03:54:53.413Z,1019.79
2019-02-06T03:55:53.414Z,1019.77
2019-02-06T03:56:53.370Z,1019.77
2019-02-06T03:57:53.386Z,1019.70
2019-02-06T03:58:53.347Z,1019.72
2019-02-06T03:59:53.357Z,1019.65
2019-02-06T04:00:53.329Z,1019.68
2019-02-06T04:01:53.320Z,1019.62
2019-02-06T04:02:53.308Z,1019.64
2019-02-06T04:03:53.298Z,1019.57
2019-02-06T04:04:53.296Z,1019.53
2019-02-06T04:05:53.303Z,1019.57
2019-02-06T04:07:00.705Z,1019.51
2019-02-06T04:07:54.327Z,1019.50
2019-02-06T04:08:53.260Z,1019.53
2019-02-06T04:09:53.243Z,1019.51
2019-02-06T04:10:53.223Z,1019.50
2019-02-06T04:11:53.204Z,1019.50
2019-02-06T04:12:53.206Z,1019.45
2019-02-06T04:13:53.196Z,1019.45
2019-02-06T04:14:53.199Z,1019.48
2019-02-06T04:15:53.172Z,1019.50
2019-02-06T04:16:53.169Z,1019.46
2019-02-06T04:17:54.445Z,1019.42
2019-02-06T04:18:53.150Z,1019.52
2019-02-06T04:19:53.143Z,1019.47
2019-02-06T04:20:53.120Z,1019.51
2019-02-06T04:21:53.100Z,1019.47
2019-02-06T04:22:53.103Z,1019.51
2019-02-06T04:23:53.098Z,1019.51
2019-02-06T04:24:53.086Z,1019.49
2019-02-06T04:25:53.064Z,1019.52
2019-02-06T04:26:53.066Z,1019.50
2019-02-06T04:27:53.042Z,1019.47
2019-02-06T04:28:53.044Z,1019.46
2019-02-06T04:29:53.033Z,1019.46
2019-02-06T04:30:53.019Z,1019.37
2019-02-06T04:31:53.002Z,1019.35
2019-02-06T04:32:53.008Z,1019.32
2019-02-06T04:33:52.978Z,1019.36
2019-02-06T04:34:53.039Z,1019.28
2019-02-06T04:35:52.968Z,1019.34
2019-02-06T04:37:05.786Z,1019.29
2019-02-06T04:37:53.928Z,1019.24
2019-02-06T04:38:52.939Z,1019.25
2019-02-06T04:39:52.909Z,1019.24
2019-02-06T04:40:52.920Z,1019.23
2019-02-06T04:41:52.912Z,1019.24
2019-02-06T04:42:52.883Z,1019.24
2019-02-06T04:43:52.876Z,1019.16
2019-02-06T04:44:52.879Z,1019.20
2019-02-06T04:45:52.869Z,1019.16
2019-02-06T04:46:52.842Z,1019.23
2019-02-06T04:47:52.856Z,1019.21
2019-02-06T04:48:52.821Z,1019.12
2019-02-06T04:49:52.818Z,1019.15
2019-02-06T04:50:52.827Z,1019.14
2019-02-06T04:51:52.780Z,1019.15
2019-02-06T04:52:52.783Z,1019.15
2019-02-06T04:53:52.760Z,1019.13
2019-02-06T04:54:52.759Z,1019.11
2019-02-06T04:55:52.754Z,1019.14
2019-02-06T04:56:52.741Z,1019.11
2019-02-06T04:57:52.727Z,1019.12
2019-02-06T04:58:52.720Z,1019.11
2019-02-06T04:59:52.698Z,1019.06
2019-02-06T05:00:52.725Z,1019.04
2019-02-06T05:01:52.689Z,1019.03
2019-02-06T05:02:52.668Z,1018.99
2019-02-06T05:03:52.666Z,1019.01
2019-02-06T05:04:52.656Z,1018.97
2019-02-06T05:05:52.649Z,1019.00
2019-02-06T05:06:52.648Z,1018.98
2019-02-06T05:07:52.744Z,1018.96
2019-02-06T05:08:52.608Z,1018.92
2019-02-06T05:09:52.604Z,1018.96
2019-02-06T05:10:52.599Z,1018.94
2019-02-06T05:11:52.571Z,1018.88
2019-02-06T05:12:52.564Z,1018.87
2019-02-06T05:13:52.546Z,1018.89
2019-02-06T05:14:52.540Z,1018.83
2019-02-06T05:15:52.541Z,1018.84
2019-02-06T05:16:52.528Z,1018.88
2019-02-06T05:17:55.711Z,1018.83
2019-02-06T05:18:52.506Z,1018.94
2019-02-06T05:19:52.490Z,1018.85
2019-02-06T05:20:52.506Z,1018.78
2019-02-06T05:21:52.466Z,1018.79
2019-02-06T05:22:52.533Z,1018.82
2019-02-06T05:23:52.460Z,1018.77
2019-02-06T05:24:52.431Z,1018.74
2019-02-06T05:25:52.445Z,1018.70
2019-02-06T05:26:52.410Z,1018.67
2019-02-06T05:27:52.403Z,1018.67
2019-02-06T05:28:52.400Z,1018.67
2019-02-06T05:29:52.380Z,1018.62
2019-02-06T05:30:52.381Z,1018.68
2019-02-06T05:31:52.353Z,1018.64
2019-02-06T05:32:52.348Z,1018.65
2019-02-06T05:33:52.346Z,1018.69
2019-02-06T05:34:52.343Z,1018.74
2019-02-06T05:35:52.330Z,1018.65
2019-02-06T05:36:52.333Z,1018.64
2019-02-06T05:37:52.292Z,1018.71
2019-02-06T05:38:52.300Z,1018.66
2019-02-06T05:39:52.288Z,1018.69
2019-02-06T05:40:52.288Z,1018.71
2019-02-06T05:41:52.263Z,1018.70
2019-02-06T05:42:52.914Z,1018.70
2019-02-06T05:43:52.227Z,1018.67
2019-02-06T05:44:52.226Z,1018.73
2019-02-06T05:45:52.224Z,1018.73
2019-02-06T05:46:52.221Z,1018.68
2019-02-06T05:47:52.225Z,1018.68
2019-02-06T05:48:52.193Z,1018.67
2019-02-06T05:49:52.164Z,1018.72
2019-02-06T05:50:52.168Z,1018.71
2019-02-06T05:51:52.156Z,1018.74
2019-02-06T05:52:52.137Z,1018.71
2019-02-06T05:53:52.119Z,1018.71
2019-02-06T05:54:52.112Z,1018.68
2019-02-06T05:55:52.100Z,1018.67
2019-02-06T05:56:52.111Z,1018.73
2019-02-06T05:57:52.082Z,1018.77
2019-02-06T05:58:52.079Z,1018.73
2019-02-06T05:59:52.056Z,1018.71
2019-02-06T06:00:52.080Z,1018.73
2019-02-06T06:01:52.063Z,1018.71
2019-02-06T06:02:52.041Z,1018.72
2019-02-06T06:03:52.012Z,1018.72
2019-02-06T06:04:52.011Z,1018.73
2019-02-06T06:05:51.997Z,1018.72
2019-02-06T06:06:52.005Z,1018.70
2019-02-06T06:07:51.965Z,1018.74
2019-02-06T06:08:51.967Z,1018.69
2019-02-06T06:09:51.968Z,1018.71
2019-02-06T06:10:51.953Z,1018.70
2019-02-06T06:11:51.954Z,1018.69
2019-02-06T06:12:51.924Z,1018.63
2019-02-06T06:13:51.906Z,1018.65
2019-02-06T06:14:51.902Z,1018.61
2019-02-06T06:15:51.883Z,1018.57
2019-02-06T06:16:51.895Z,1018.56
2019-02-06T06:17:51.869Z,1018.53
2019-02-06T06:18:51.853Z,1018.55
2019-02-06T06:19:51.843Z,1018.55
2019-02-06T06:20:51.844Z,1018.48
2019-02-06T06:21:51.833Z,1018.48
2019-02-06T06:22:51.828Z,1018.49
2019-02-06T06:23:51.799Z,1018.44
2019-02-06T06:24:51.790Z,1018.46
2019-02-06T06:25:51.778Z,1018.44
2019-02-06T06:26:51.785Z,1018.44
2019-02-06T06:27:51.753Z,1018.42
2019-02-06T06:28:51.758Z,1018.41
2019-02-06T06:29:51.729Z,1018.42
2019-02-06T06:30:51.721Z,1018.42
2019-02-06T06:31:51.733Z,1018.45
2019-02-06T06:32:51.703Z,1018.47
2019-02-06T06:33:52.628Z,1018.41
2019-02-06T06:34:51.711Z,1018.40
2019-02-06T06:35:51.666Z,1018.39
2019-02-06T06:36:51.702Z,1018.40
2019-02-06T06:37:59.940Z,1018.34
2019-02-06T06:38:52.647Z,1018.30
2019-02-06T06:39:51.628Z,1018.28
2019-02-06T06:40:51.625Z,1018.27
2019-02-06T06:41:51.630Z,1018.24
2019-02-06T06:42:51.591Z,1018.27
2019-02-06T06:43:51.584Z,1018.26
2019-02-06T06:44:51.571Z,1018.22
2019-02-06T06:45:51.585Z,1018.26
2019-02-06T06:46:51.591Z,1018.25
2019-02-06T06:47:51.540Z,1018.26
2019-02-06T06:48:51.524Z,1018.25
2019-02-06T06:49:51.518Z,1018.24
2019-02-06T06:50:51.504Z,1018.17
2019-02-06T06:51:51.544Z,1018.16
2019-02-06T06:52:51.501Z,1018.08
2019-02-06T06:53:51.479Z,1018.11
2019-02-06T06:54:51.466Z,1018.10
2019-02-06T06:55:51.455Z,1018.05
2019-02-06T06:56:51.446Z,1018.10
2019-02-06T06:57:51.454Z,1018.12
2019-02-06T06:58:51.438Z,1018.12
2019-02-06T06:59:51.410Z,1018.11
2019-02-06T07:00:51.396Z,1018.03
2019-02-06T07:01:51.405Z,1018.05
2019-02-06T07:02:51.400Z,1018.01
2019-02-06T07:03:51.383Z,1017.99
2019-02-06T07:04:51.362Z,1018.03
2019-02-06T07:05:51.347Z,1018.04
2019-02-06T07:06:51.332Z,1018.03
2019-02-06T07:07:51.339Z,1018.03
2019-02-06T07:08:51.323Z,1018.01
2019-02-06T07:09:51.312Z,1018.06
2019-02-06T07:10:51.330Z,1018.06
2019-02-06T07:11:51.282Z,1018.07
2019-02-06T07:12:51.282Z,1018.06
2019-02-06T07:13:51.654Z,1018.07
2019-02-06T07:14:51.249Z,1018.13
2019-02-06T07:15:51.255Z,1018.16
2019-02-06T07:16:51.225Z,1018.14
2019-02-06T07:17:51.252Z,1018.13
2019-02-06T07:18:51.200Z,1018.12
2019-02-06T07:19:51.203Z,1018.12
2019-02-06T07:20:51.196Z,1018.17
2019-02-06T07:21:51.176Z,1018.13
2019-02-06T07:22:51.194Z,1018.13
2019-02-06T07:23:51.155Z,1018.16
2019-02-06T07:24:51.161Z,1018.16
2019-02-06T07:25:51.131Z,1018.17
2019-02-06T07:26:51.121Z,1018.14
2019-02-06T07:27:51.133Z,1018.21
2019-02-06T07:28:51.100Z,1018.19
2019-02-06T07:29:51.090Z,1018.11
2019-02-06T07:30:51.074Z,1018.14
2019-02-06T07:31:51.079Z,1018.11
2019-02-06T07:32:51.063Z,1018.13
2019-02-06T07:33:51.063Z,1018.05
2019-02-06T07:34:51.045Z,1018.07
2019-02-06T07:35:51.022Z,1018.04
2019-02-06T07:36:51.008Z,1018.05
2019-02-06T07:37:51.018Z,1018.03
2019-02-06T07:38:50.989Z,1018.01
2019-02-06T07:39:50.999Z,1017.99
2019-02-06T07:40:50.990Z,1017.99
2019-02-06T07:41:51.034Z,1018.07
2019-02-06T07:42:50.952Z,1017.98
2019-02-06T07:43:51.041Z,1018.01
2019-02-06T07:44:52.133Z,1018.02
2019-02-06T07:45:50.917Z,1018.07
2019-02-06T07:46:50.908Z,1018.08
2019-02-06T07:47:51.090Z,1018.09
2019-02-06T07:48:50.876Z,1018.09
2019-02-06T07:49:50.884Z,1018.05
2019-02-06T07:50:50.871Z,1018.10
2019-02-06T07:51:50.865Z,1018.08
2019-02-06T07:52:50.839Z,1018.02
2019-02-06T07:53:50.850Z,1018.03
2019-02-06T07:54:50.810Z,1018.05
2019-02-06T07:55:50.819Z,1018.00
2019-02-06T07:56:50.801Z,1017.94
2019-02-06T07:57:50.789Z,1017.95
2019-02-06T07:58:50.972Z,1017.95
2019-02-06T07:59:50.763Z,1017.94
2019-02-06T08:00:50.753Z,1017.97
2019-02-06T08:01:50.741Z,1017.97
2019-02-06T08:02:50.725Z,1017.99
2019-02-06T08:03:53.763Z,1017.97
2019-02-06T08:04:50.760Z,1017.91
2019-02-06T08:05:50.696Z,1017.97
2019-02-06T08:06:50.709Z,1017.94
2019-02-06T08:07:50.688Z,1017.90
2019-02-06T08:08:50.666Z,1017.92
2019-02-06T08:09:50.750Z,1017.89
2019-02-06T08:10:50.646Z,1017.88
2019-02-06T08:11:50.632Z,1017.91
2019-02-06T08:12:50.720Z,1017.85
2019-02-06T08:13:50.624Z,1017.88
2019-02-06T08:14:50.660Z,1017.86
2019-02-06T08:15:50.595Z,1017.83
2019-02-06T08:16:50.592Z,1017.80
2019-02-06T08:17:50.588Z,1017.83
2019-02-06T08:18:50.558Z,1017.80
2019-02-06T08:19:50.560Z,1017.75
2019-02-06T08:20:50.549Z,1017.73
2019-02-06T08:21:50.571Z,1017.79
2019-02-06T08:22:50.513Z,1017.82
2019-02-06T08:23:50.510Z,1017.85
2019-02-06T08:24:50.491Z,1017.87
2019-02-06T08:25:50.509Z,1017.83
2019-02-06T08:26:50.491Z,1017.75
2019-02-06T08:27:50.461Z,1017.77
2019-02-06T08:28:50.459Z,1017.70
2019-02-06T08:29:50.439Z,1017.75
2019-02-06T08:30:50.450Z,1017.71
2019-02-06T08:31:50.426Z,1017.70
2019-02-06T08:32:50.410Z,1017.73
2019-02-06T08:33:50.401Z,1017.70
2019-02-06T08:34:50.393Z,1017.78
2019-02-06T08:35:50.393Z,1017.72
2019-02-06T08:36:50.367Z,1017.71
2019-02-06T08:37:50.363Z,1017.71
2019-02-06T08:38:50.344Z,1017.76
2019-02-06T08:39:50.334Z,1017.79
2019-02-06T08:40:50.347Z,1017.72
2019-02-06T08:41:50.314Z,1017.72
2019-02-06T08:42:50.429Z,1017.72
2019-02-06T08:43:50.311Z,1017.76
2019-02-06T08:44:50.280Z,1017.78
2019-02-06T08:45:50.285Z,1017.81
2019-02-06T08:46:50.267Z,1017.85
2019-02-06T08:47:50.259Z,1017.93
2019-02-06T08:48:50.257Z,1017.92
2019-02-06T08:49:50.224Z,1017.92
2019-02-06T08:50:50.222Z,1017.85
2019-02-06T08:51:50.205Z,1017.90
2019-02-06T08:52:50.194Z,1017.87
2019-02-06T08:53:50.205Z,1017.86
2019-02-06T08:54:50.233Z,1017.82
2019-02-06T08:55:50.187Z,1017.88
2019-02-06T08:56:50.543Z,1017.82
2019-02-06T08:57:50.137Z,1017.81
2019-02-06T08:58:50.125Z,1017.84
2019-02-06T08:59:50.120Z,1017.82
2019-02-06T09:00:50.116Z,1017.80
2019-02-06T09:01:50.108Z,1017.73
2019-02-06T09:02:50.093Z,1017.75
2019-02-06T09:03:50.071Z,1017.68
2019-02-06T09:04:55.844Z,1017.67
2019-02-06T09:05:51.076Z,1017.71
2019-02-06T09:06:50.037Z,1017.64
2019-02-06T09:07:50.032Z,1017.64
2019-02-06T09:08:59.373Z,1017.68
2019-02-06T09:09:51.005Z,1017.66
2019-02-06T09:10:50.012Z,1017.67
2019-02-06T09:11:49.980Z,1017.74
2019-02-06T09:12:49.969Z,1017.70
2019-02-06T09:13:50.033Z,1017.71
2019-02-06T09:14:49.954Z,1017.74
2019-02-06T09:15:49.956Z,1017.75
2019-02-06T09:16:49.924Z,1017.67
2019-02-06T09:17:49.915Z,1017.68
2019-02-06T09:18:49.909Z,1017.65
2019-02-06T09:19:49.908Z,1017.67
2019-02-06T09:20:52.709Z,1017.66
2019-02-06T09:21:49.885Z,1017.64
2019-02-06T09:22:49.884Z,1017.66
2019-02-06T09:23:49.852Z,1017.68
2019-02-06T09:24:49.836Z,1017.72
2019-02-06T09:25:49.823Z,1017.69
2019-02-06T09:26:49.843Z,1017.65
2019-02-06T09:27:49.802Z,1017.65
2019-02-06T09:28:49.809Z,1017.65
2019-02-06T09:29:49.796Z,1017.69
2019-02-06T09:30:49.793Z,1017.68
2019-02-06T09:31:49.777Z,1017.62
2019-02-06T09:32:49.750Z,1017.60
2019-02-06T09:33:49.750Z,1017.54
2019-02-06T09:34:49.732Z,1017.55
2019-02-06T09:35:49.711Z,1017.62
2019-02-06T09:36:49.720Z,1017.60
2019-02-06T09:37:49.700Z,1017.61
2019-02-06T09:38:49.688Z,1017.62
2019-02-06T09:39:49.680Z,1017.54
2019-02-06T09:40:49.801Z,1017.58
2019-02-06T09:41:49.663Z,1017.57
2019-02-06T09:42:49.648Z,1017.54
2019-02-06T09:43:49.642Z,1017.54
2019-02-06T09:44:49.622Z,1017.50
2019-02-06T09:45:49.609Z,1017.60
2019-02-06T09:46:49.623Z,1017.49
2019-02-06T09:47:49.582Z,1017.50
2019-02-06T09:48:49.576Z,1017.49
2019-02-06T09:49:50.026Z,1017.53
2019-02-06T09:50:49.555Z,1017.48
2019-02-06T09:51:49.567Z,1017.53
2019-02-06T09:52:49.559Z,1017.46
2019-02-06T09:53:49.539Z,1017.48
2019-02-06T09:54:49.524Z,1017.51
2019-02-06T09:55:49.493Z,1017.59
2019-02-06T09:56:50.725Z,1017.53
2019-02-06T09:57:49.496Z,1017.52
2019-02-06T09:58:49.470Z,1017.55
2019-02-06T09:59:49.455Z,1017.49
2019-02-06T10:00:49.447Z,1017.54
2019-02-06T10:01:49.427Z,1017.52
2019-02-06T10:02:49.450Z,1017.54
2019-02-06T10:03:49.427Z,1017.54
2019-02-06T10:04:49.418Z,1017.56
2019-02-06T10:05:49.398Z,1017.45
2019-02-06T10:06:50.620Z,1017.48
2019-02-06T10:07:49.391Z,1017.48
2019-02-06T10:08:49.365Z,1017.43
2019-02-06T10:09:49.359Z,1017.42
2019-02-06T10:10:49.352Z,1017.27
2019-02-06T10:11:49.324Z,1017.36
2019-02-06T10:12:49.337Z,1017.36
2019-02-06T10:13:49.301Z,1017.28
2019-02-06T10:14:49.306Z,1017.34
2019-02-06T10:15:49.287Z,1017.31
2019-02-06T10:16:49.276Z,1017.31
2019-02-06T10:17:49.270Z,1017.33
2019-02-06T10:18:49.253Z,1017.29
2019-02-06T10:19:49.236Z,1017.29
2019-02-06T10:20:49.252Z,1017.32
2019-02-06T10:21:51.405Z,1017.30
2019-02-06T10:22:49.238Z,1017.30
2019-02-06T10:23:49.198Z,1017.30
2019-02-06T10:24:49.201Z,1017.29
2019-02-06T10:25:49.172Z,1017.27
2019-02-06T10:26:49.170Z,1017.32
2019-02-06T10:27:49.178Z,1017.33
2019-02-06T10:28:49.152Z,1017.31
2019-02-06T10:29:49.137Z,1017.28
2019-02-06T10:30:49.135Z,1017.39
2019-02-06T10:31:49.132Z,1017.36
2019-02-06T10:32:49.139Z,1017.34
2019-02-06T10:33:49.101Z,1017.29
2019-02-06T10:34:49.198Z,1017.28
2019-02-06T10:35:51.967Z,1017.22
2019-02-06T10:36:49.062Z,1017.26
2019-02-06T10:37:49.061Z,1017.25
2019-02-06T10:38:49.049Z,1017.21
2019-02-06T10:39:49.044Z,1017.20
2019-02-06T10:40:49.041Z,1017.28
2019-02-06T10:41:49.006Z,1017.23
2019-02-06T10:42:49.032Z,1017.21
2019-02-06T10:43:49.004Z,1017.21
2019-02-06T10:44:48.978Z,1017.26
2019-02-06T10:45:48.960Z,1017.24
2019-02-06T10:46:48.950Z,1017.26
2019-02-06T10:47:48.938Z,1017.17
2019-02-06T10:48:48.954Z,1017.23
2019-02-06T10:49:48.933Z,1017.19
2019-02-06T10:50:48.913Z,1017.19
2019-02-06T10:51:48.913Z,1017.20
2019-02-06T10:52:48.901Z,1017.23
2019-02-06T10:53:48.882Z,1017.18
2019-02-06T10:54:48.875Z,1017.22
2019-02-06T10:55:48.848Z,1017.24
2019-02-06T10:56:48.887Z,1017.28
2019-02-06T10:57:48.866Z,1017.32
2019-02-06T10:58:48.882Z,1017.32
2019-02-06T10:59:48.807Z,1017.30
2019-02-06T11:00:48.822Z,1017.36
2019-02-06T11:01:48.785Z,1017.32
2019-02-06T11:02:48.786Z,1017.29
2019-02-06T11:03:48.775Z,1017.36
2019-02-06T11:04:48.758Z,1017.27
2019-02-06T11:05:48.751Z,1017.23
2019-02-06T11:06:48.746Z,1017.29
2019-02-06T11:07:48.728Z,1017.28
2019-02-06T11:08:48.756Z,1017.22
2019-02-06T11:09:48.699Z,1017.23
2019-02-06T11:10:48.708Z,1017.25
2019-02-06T11:11:48.695Z,1017.23
2019-02-06T11:12:48.693Z,1017.25
2019-02-06T11:13:49.816Z,1017.19
2019-02-06T11:14:48.659Z,1017.21
2019-02-06T11:15:48.653Z,1017.18
2019-02-06T11:16:48.631Z,1017.22
2019-02-06T11:17:48.645Z,1017.27
2019-02-06T11:18:48.626Z,1017.20
2019-02-06T11:19:48.594Z,1017.28
2019-02-06T11:20:48.589Z,1017.17
2019-02-06T11:21:48.572Z,1017.26
2019-02-06T11:22:48.584Z,1017.21
2019-02-06T11:23:48.566Z,1017.22
2019-02-06T11:24:48.544Z,1017.20
2019-02-06T11:25:48.528Z,1017.29
2019-02-06T11:26:48.518Z,1017.20
2019-02-06T11:27:48.506Z,1017.20
2019-02-06T11:28:48.529Z,1017.09
2019-02-06T11:29:48.679Z,1017.20
2019-02-06T11:30:48.504Z,1017.15
2019-02-06T11:31:48.462Z,1017.14
2019-02-06T11:32:48.456Z,1017.12
2019-02-06T11:33:48.446Z,1017.16
2019-02-06T11:34:48.431Z,1017.08
2019-02-06T11:35:48.425Z,1017.09
2019-02-06T11:36:48.430Z,1017.09
2019-02-06T11:37:48.416Z,1017.04
2019-02-06T11:38:48.410Z,1017.04
2019-02-06T11:39:57.472Z,1017.06
2019-02-06T11:40:49.365Z,1017.01
2019-02-06T11:41:48.360Z,1016.94
2019-02-06T11:42:48.353Z,1016.94
2019-02-06T11:43:48.343Z,1016.97
2019-02-06T11:44:48.369Z,1017.00
2019-02-06T11:45:48.313Z,1016.98
2019-02-06T11:46:48.295Z,1017.01
2019-02-06T11:47:48.297Z,1016.98
2019-02-06T11:48:48.308Z,1016.96
2019-02-06T11:49:48.295Z,1016.96
2019-02-06T11:50:48.254Z,1016.91
2019-02-06T11:51:48.254Z,1016.94
2019-02-06T11:52:48.230Z,1016.87
2019-02-06T11:53:48.243Z,1016.88
2019-02-06T11:54:48.252Z,1016.93
2019-02-06T11:55:48.201Z,1016.86
2019-02-06T11:56:48.189Z,1016.88
2019-02-06T11:57:48.187Z,1016.84
2019-02-06T11:58:48.201Z,1016.87
2019-02-06T11:59:48.164Z,1016.78
2019-02-06T12:00:48.760Z,1016.80
2019-02-06T12:01:48.137Z,1016.78
2019-02-06T12:02:48.119Z,1016.79
2019-02-06T12:03:48.148Z,1016.75
2019-02-06T12:04:48.102Z,1016.78
2019-02-06T12:05:48.108Z,1016.80